Time;durP1;ratioP1;P1;durP2;ratioP2;P2;SDS_P1;SDS_P2;PMS_P1;PMS_P2;Temp;Humidity;BMP_temperature;BMP_pressure;BME280_temperature;BME280_humidity;BME280_pressure;Samples;Min_cycle;Max_cycle;Signal;HPM_P1;HPM_P2
2021/10/12 00:00:17;;;;;;;27.58;18.05;;;;;;;;;;5116713;28;20094;-62
2021/10/12 00:02:42;;;;;;;27.52;16.42;;;;;;;;;;5098459;28;20039;-62
2021/10/12 00:05:08;;;;;;;26.85;16.25;;;;;;;;;;5098603;28;20027;-62
2021/10/12 00:07:34;;;;;;;25.98;15.27;;;;;;;;;;5116726;28;20036;-61
2021/10/12 00:09:59;;;;;;;24.52;15.63;;;;;;;;;;5098512;28;20375;-62
2021/10/12 00:12:25;;;;;;;24.60;15.07;;;;;;;;;;5116696;28;20066;-62
2021/10/12 00:14:50;;;;;;;21.75;14.00;;;;;;;;;;5116216;28;20040;-62
2021/10/12 00:17:16;;;;;;;23.30;14.88;;;;;;;;;;5115648;28;20032;-61
2021/10/12 00:19:41;;;;;;;19.35;14.52;;;;;;;;;;5115864;28;20030;-62
2021/10/12 00:22:07;;;;;;;21.05;14.23;;;;;;;;;;5098493;28;20040;-61
2021/10/12 00:24:33;;;;;;;23.88;15.20;;;;;;;;;;5116723;28;20035;-61
2021/10/12 00:26:58;;;;;;;20.33;14.70;;;;;;;;;;5116233;28;20118;-62
2021/10/12 00:29:23;;;;;;;18.52;12.93;;;;;;;;;;5116357;28;20475;-61
2021/10/12 00:31:49;;;;;;;22.63;14.40;;;;;;;;;;5116129;28;20080;-61
2021/10/12 00:34:21;;;;;;;23.05;13.85;;;;;;;;;;5116029;28;20463;-62
2021/10/12 00:36:47;;;;;;;19.10;12.35;;;;;;;;;;5081070;28;20038;-61
2021/10/12 00:39:12;;;;;;;18.70;12.65;;;;;;;;;;5097987;28;20028;-62
2021/10/12 00:41:38;;;;;;;20.98;13.05;;;;;;;;;;5116301;28;20028;-62
2021/10/12 00:44:06;;;;;;;20.45;13.52;;;;;;;;;;5115788;28;20118;-61
2021/10/12 00:46:31;;;;;;;18.58;12.77;;;;;;;;;;5115747;28;20035;-61
2021/10/12 00:48:58;;;;;;;18.58;12.57;;;;;;;;;;5116182;28;20066;-61
2021/10/12 00:51:23;;;;;;;19.25;12.07;;;;;;;;;;5115917;28;20089;-61
2021/10/12 00:53:49;;;;;;;18.98;12.55;;;;;;;;;;5115903;28;20032;-61
2021/10/12 00:56:14;;;;;;;18.27;11.85;;;;;;;;;;5116065;28;20064;-61
2021/10/12 00:58:40;;;;;;;17.88;12.27;;;;;;;;;;5097691;28;20022;-61
2021/10/12 01:01:06;;;;;;;17.55;12.02;;;;;;;;;;5097288;28;20066;-61
2021/10/12 01:03:31;;;;;;;18.23;12.15;;;;;;;;;;5115714;28;20050;-61
2021/10/12 01:05:57;;;;;;;18.45;12.57;;;;;;;;;;5115713;28;20028;-61
2021/10/12 01:08:23;;;;;;;16.73;12.20;;;;;;;;;;5097207;28;20498;-61
2021/10/12 01:10:48;;;;;;;19.92;12.38;;;;;;;;;;5115533;28;20399;-61
2021/10/12 01:13:14;;;;;;;18.80;11.80;;;;;;;;;;5115273;28;20103;-61
2021/10/12 01:15:39;;;;;;;21.50;12.30;;;;;;;;;;5097533;28;20495;-61
2021/10/12 01:18:09;;;;;;;20.15;12.00;;;;;;;;;;5115342;28;20098;-61
2021/10/12 01:20:36;;;;;;;17.70;11.27;;;;;;;;;;5115261;28;20584;-61
2021/10/12 01:23:01;;;;;;;15.57;10.98;;;;;;;;;;5115172;28;20073;-61
2021/10/12 01:25:27;;;;;;;18.58;11.60;;;;;;;;;;5115051;28;20031;-61
2021/10/12 01:27:53;;;;;;;15.70;10.65;;;;;;;;;;5115128;28;20023;-61
2021/10/12 01:30:18;;;;;;;17.92;10.18;;;;;;;;;;5114986;28;20348;-61
2021/10/12 01:32:45;;;;;;;17.17;10.68;;;;;;;;;;5115011;28;20020;-61
2021/10/12 01:35:10;;;;;;;14.52;9.55;;;;;;;;;;5096883;28;20062;-61
2021/10/12 01:37:36;;;;;;;14.48;9.63;;;;;;;;;;5114802;28;20059;-61
2021/10/12 01:40:03;;;;;;;13.55;9.02;;;;;;;;;;5115081;28;20023;-61
2021/10/12 01:42:29;;;;;;;12.30;7.97;;;;;;;;;;5114959;28;20027;-61
2021/10/12 01:44:54;;;;;;;11.38;8.05;;;;;;;;;;5114655;28;20479;-61
2021/10/12 01:47:20;;;;;;;11.13;7.97;;;;;;;;;;5114330;28;20050;-61
2021/10/12 01:49:46;;;;;;;12.00;8.02;;;;;;;;;;5114472;28;20093;-61
2021/10/12 01:52:12;;;;;;;11.98;7.70;;;;;;;;;;5114879;28;20046;-61
2021/10/12 01:54:38;;;;;;;10.73;7.72;;;;;;;;;;5114904;28;20392;-61
2021/10/12 01:57:03;;;;;;;11.40;7.28;;;;;;;;;;5096461;28;20024;-61
2021/10/12 01:59:29;;;;;;;10.40;7.57;;;;;;;;;;5114591;28;20036;-61
2021/10/12 02:01:54;;;;;;;10.32;7.15;;;;;;;;;;5114441;28;20459;-61
2021/10/12 02:04:20;;;;;;;11.38;7.10;;;;;;;;;;5114505;28;20112;-61
2021/10/12 02:06:45;;;;;;;8.75;6.95;;;;;;;;;;5114594;28;20023;-63
2021/10/12 02:09:11;;;;;;;12.65;7.55;;;;;;;;;;5114449;28;20105;-63
2021/10/12 02:11:36;;;;;;;10.27;7.40;;;;;;;;;;5096419;28;20036;-63
2021/10/12 02:14:02;;;;;;;10.82;8.05;;;;;;;;;;5114379;28;20035;-63
2021/10/12 02:16:28;;;;;;;10.15;8.02;;;;;;;;;;5114254;28;20033;-63
2021/10/12 02:18:53;;;;;;;10.50;7.57;;;;;;;;;;5114466;28;20122;-63
2021/10/12 02:21:19;;;;;;;11.38;7.57;;;;;;;;;;5114010;28;20031;-63
2021/10/12 02:23:44;;;;;;;8.98;6.57;;;;;;;;;;5114214;28;20507;-63
2021/10/12 02:26:10;;;;;;;9.98;6.65;;;;;;;;;;5114220;28;20039;-63
2021/10/12 02:28:35;;;;;;;9.98;6.57;;;;;;;;;;5095709;28;20126;-63
2021/10/12 02:31:01;;;;;;;9.85;6.90;;;;;;;;;;5114192;28;20031;-63
2021/10/12 02:33:26;;;;;;;9.25;6.43;;;;;;;;;;5113961;28;20040;-63
2021/10/12 02:35:53;;;;;;;9.77;7.03;;;;;;;;;;5113950;28;20024;-63
2021/10/12 02:38:18;;;;;;;9.68;6.45;;;;;;;;;;5113788;28;20067;-63
2021/10/12 02:40:44;;;;;;;8.65;6.55;;;;;;;;;;5113512;28;20108;-63
2021/10/12 02:43:09;;;;;;;8.68;6.45;;;;;;;;;;5095601;28;20043;-63
2021/10/12 02:45:35;;;;;;;8.95;6.32;;;;;;;;;;5113881;28;20027;-63
2021/10/12 02:48:00;;;;;;;10.32;5.60;;;;;;;;;;5095181;28;20040;-63
2021/10/12 02:50:26;;;;;;;9.48;6.75;;;;;;;;;;5095629;28;20042;-63
2021/10/12 02:52:51;;;;;;;8.85;6.07;;;;;;;;;;5113714;28;20395;-63
2021/10/12 02:55:17;;;;;;;8.10;6.78;;;;;;;;;;5113902;28;20031;-63
2021/10/12 02:57:43;;;;;;;7.07;6.35;;;;;;;;;;5113573;28;20122;-63
2021/10/12 03:00:08;;;;;;;10.52;6.70;;;;;;;;;;5113713;28;20038;-64
2021/10/12 03:02:34;;;;;;;10.52;7.10;;;;;;;;;;5113665;28;20036;-64
2021/10/12 03:05:00;;;;;;;9.10;6.10;;;;;;;;;;5095591;28;20028;-64
2021/10/12 03:07:26;;;;;;;8.32;7.07;;;;;;;;;;5113917;28;20036;-63
2021/10/12 03:09:51;;;;;;;9.45;6.70;;;;;;;;;;5113705;28;20113;-62
2021/10/12 03:12:18;;;;;;;10.00;6.68;;;;;;;;;;5095273;28;20043;-64
2021/10/12 03:14:43;;;;;;;9.63;6.90;;;;;;;;;;5113364;28;20059;-64
2021/10/12 03:17:10;;;;;;;10.43;7.93;;;;;;;;;;5113648;28;20063;-64
2021/10/12 03:19:37;;;;;;;9.13;7.20;;;;;;;;;;5113466;28;20024;-64
2021/10/12 03:22:14;;;;;;;9.95;6.68;;;;;;;;;;5113743;28;20031;-65
2021/10/12 03:24:39;;;;;;;9.00;7.00;;;;;;;;;;5095936;28;20042;-65
2021/10/12 03:27:06;;;;;;;11.27;7.30;;;;;;;;;;5113535;28;20032;-65
2021/10/12 03:29:31;;;;;;;9.00;7.55;;;;;;;;;;5113551;28;20371;-63
2021/10/12 03:31:59;;;;;;;9.52;7.15;;;;;;;;;;5113386;28;20103;-61
2021/10/12 03:34:28;;;;;;;10.68;8.13;;;;;;;;;;5113404;28;20125;-61
2021/10/12 03:36:54;;;;;;;10.02;7.95;;;;;;;;;;5095355;28;20050;-61
2021/10/12 03:39:20;;;;;;;11.60;7.93;;;;;;;;;;5113626;28;20031;-61
2021/10/12 03:41:46;;;;;;;11.15;7.78;;;;;;;;;;5113390;28;20028;-61
2021/10/12 03:44:11;;;;;;;11.15;7.38;;;;;;;;;;5113419;28;20410;-61
2021/10/12 03:46:37;;;;;;;8.57;7.32;;;;;;;;;;5113010;28;20027;-61
2021/10/12 03:49:03;;;;;;;11.27;7.53;;;;;;;;;;5113489;28;20042;-61
2021/10/12 03:51:28;;;;;;;10.05;7.20;;;;;;;;;;5113673;28;20371;-61
2021/10/12 03:53:54;;;;;;;10.82;7.70;;;;;;;;;;5098633;28;20047;-61
2021/10/12 03:56:19;;;;;;;11.50;7.22;;;;;;;;;;5098978;28;20043;-61
2021/10/12 03:58:45;;;;;;;7.57;6.20;;;;;;;;;;5116966;28;20066;-61
2021/10/12 04:01:10;;;;;;;10.10;7.60;;;;;;;;;;5117012;28;20019;-61
2021/10/12 04:03:36;;;;;;;12.00;7.40;;;;;;;;;;5116695;28;20477;-61
2021/10/12 04:06:01;;;;;;;9.75;7.03;;;;;;;;;;5116901;28;20020;-61
2021/10/12 04:08:27;;;;;;;9.65;6.82;;;;;;;;;;5098315;28;20062;-61
2021/10/12 04:10:53;;;;;;;10.48;6.65;;;;;;;;;;5116572;28;20153;-61
2021/10/12 04:13:19;;;;;;;8.45;7.13;;;;;;;;;;5116493;28;20043;-61
2021/10/12 04:15:45;;;;;;;8.85;6.55;;;;;;;;;;5098060;28;20024;-61
2021/10/12 04:18:10;;;;;;;8.75;7.28;;;;;;;;;;5116297;28;20036;-61
2021/10/12 04:20:36;;;;;;;8.63;6.65;;;;;;;;;;5116577;28;20027;-60
2021/10/12 04:23:03;;;;;;;8.70;6.60;;;;;;;;;;5116234;28;20044;-60
2021/10/12 04:25:28;;;;;;;11.85;6.97;;;;;;;;;;5115822;28;20046;-61
2021/10/12 04:27:55;;;;;;;11.05;7.25;;;;;;;;;;5116659;28;20043;-60
2021/10/12 04:30:20;;;;;;;10.60;6.90;;;;;;;;;;5116084;28;20031;-61
2021/10/12 04:32:47;;;;;;;12.07;7.25;;;;;;;;;;5115855;28;20043;-61
2021/10/12 04:35:12;;;;;;;12.93;7.93;;;;;;;;;;5116182;28;20068;-60
2021/10/12 04:41:13;;;;;;;8.55;7.10;;;;;;;;;;5116653;28;20533;-60
2021/10/12 04:50:54;;;;;;;13.00;8.18;;;;;;;;;;5116483;28;20030;-63
2021/10/12 04:56:55;;;;;;;12.73;7.60;;;;;;;;;;5116117;28;20543;-63
2021/10/12 05:02:56;;;;;;;9.93;7.40;;;;;;;;;;5116281;28;20030;-63
2021/10/12 05:08:56;;;;;;;11.25;7.93;;;;;;;;;;5116159;28;20030;-63
2021/10/12 05:14:56;;;;;;;12.13;8.35;;;;;;;;;;5115762;28;20034;-63
2021/10/12 05:24:32;;;;;;;14.75;8.75;;;;;;;;;;5115816;28;20069;-62
2021/10/12 05:30:39;;;;;;;12.38;8.68;;;;;;;;;;5115752;28;20097;-63
2021/10/12 05:36:39;;;;;;;11.80;7.97;;;;;;;;;;5115615;28;20088;-64
2021/10/12 05:42:40;;;;;;;11.20;8.13;;;;;;;;;;5115211;28;20099;-63
2021/10/12 06:02:14;;;;;;;14.52;7.38;;;;;;;;;;5115141;28;20133;-62
2021/10/12 06:04:39;;;;;;;13.25;8.23;;;;;;;;;;5114517;28;20075;-62
2021/10/12 06:07:05;;;;;;;13.23;8.65;;;;;;;;;;5114518;28;20039;-62
2021/10/12 06:09:30;;;;;;;13.23;9.43;;;;;;;;;;5114279;28;20044;-62
2021/10/12 06:11:56;;;;;;;13.00;8.82;;;;;;;;;;5114221;28;20034;-62
2021/10/12 06:14:22;;;;;;;11.80;7.82;;;;;;;;;;5114269;28;20040;-62
2021/10/12 06:20:22;;;;;;;12.15;6.95;;;;;;;;;;5114818;28;20131;-62
2021/10/12 06:26:23;;;;;;;13.30;7.43;;;;;;;;;;5114718;28;20054;-62
2021/10/12 06:32:24;;;;;;;10.73;6.78;;;;;;;;;;5114597;28;20456;-62
2021/10/12 06:38:25;;;;;;;10.15;6.00;;;;;;;;;;5114540;28;20030;-62
2021/10/12 06:44:26;;;;;;;10.48;6.32;;;;;;;;;;5114400;28;20038;-62
2021/10/12 06:50:27;;;;;;;9.15;6.35;;;;;;;;;;5114133;28;20034;-62
2021/10/12 07:06:48;;;;;;;10.95;7.25;;;;;;;;;;5114212;28;20039;-62
2021/10/12 07:12:52;;;;;;;9.68;6.03;;;;;;;;;;5114159;28;20486;-62
2021/10/12 07:18:53;;;;;;;7.50;5.85;;;;;;;;;;5114126;28;20490;-62
2021/10/12 07:24:54;;;;;;;7.38;5.72;;;;;;;;;;5113943;28;20034;-62
2021/10/12 07:27:20;;;;;;;9.00;6.35;;;;;;;;;;5115044;28;20075;-62
2021/10/12 07:29:46;;;;;;;7.72;5.75;;;;;;;;;;5117572;28;20510;-62
2021/10/12 07:32:12;;;;;;;12.65;7.18;;;;;;;;;;5117102;28;20445;-62
2021/10/12 07:34:38;;;;;;;8.43;5.93;;;;;;;;;;5116760;28;20038;-62
2021/10/12 07:37:04;;;;;;;8.93;5.88;;;;;;;;;;5117310;28;20039;-62
2021/10/12 07:39:29;;;;;;;8.35;6.68;;;;;;;;;;5117330;28;20020;-62
2021/10/12 07:45:29;;;;;;;10.55;6.40;;;;;;;;;;5117796;28;20030;-62
2021/10/12 07:51:29;;;;;;;17.38;8.70;;;;;;;;;;5117656;28;20477;-62
2021/10/12 07:57:29;;;;;;;10.85;7.40;;;;;;;;;;5117556;28;20405;-62
2021/10/12 08:07:06;;;;;;;7.55;6.20;;;;;;;;;;5117368;28;20497;-62
2021/10/12 08:13:19;;;;;;;23.50;8.75;;;;;;;;;;5117286;28;20049;-62
2021/10/12 08:23:52;;;;;;;6.72;4.63;;;;;;;;;;5117060;28;20058;-62
2021/10/12 08:29:55;;;;;;;10.07;5.63;;;;;;;;;;5116948;28;20026;-62
2021/10/12 08:35:56;;;;;;;5.65;4.07;;;;;;;;;;5116850;28;20038;-62
2021/10/12 08:52:44;;;;;;;5.38;3.08;;;;;;;;;;5013678;28;20110;-62
2021/10/12 08:58:45;;;;;;;13.93;6.30;;;;;;;;;;5013924;28;20433;-62
2021/10/12 09:08:35;;;;;;;6.50;3.10;;;;;;;;;;5013634;28;20044;-62
2021/10/12 09:18:42;;;;;;;7.10;3.28;;;;;;;;;;5095378;28;20494;-62
2021/10/12 09:24:42;;;;;;;5.32;2.78;;;;;;;;;;5095768;28;20383;-62
2021/10/12 09:30:42;;;;;;;3.13;2.00;;;;;;;;;;5095370;28;20160;-62
2021/10/12 09:36:43;;;;;;;3.92;2.08;;;;;;;;;;5095249;28;20035;-62
2021/10/12 09:53:07;;;;;;;2.35;1.98;;;;;;;;;;5094982;28;20020;-62
2021/10/12 09:59:07;;;;;;;5.20;1.80;;;;;;;;;;5094870;28;20118;-62
2021/10/12 10:08:57;;;;;;;14.60;4.22;;;;;;;;;;5115304;28;20179;-62
2021/10/12 10:14:58;;;;;;;2.70;1.50;;;;;;;;;;5114738;28;20172;-62
2021/10/12 10:21:00;;;;;;;4.38;1.60;;;;;;;;;;5114846;28;20027;-62
2021/10/12 10:27:01;;;;;;;3.15;1.60;;;;;;;;;;5114466;28;20038;-62
2021/10/12 10:33:03;;;;;;;3.05;1.30;;;;;;;;;;5114640;28;20027;-62
2021/10/12 10:39:37;;;;;;;11.27;3.35;;;;;;;;;;5121148;28;20455;-62
2021/10/12 10:45:41;;;;;;;1.40;0.98;;;;;;;;;;5114460;28;20122;-62
2021/10/12 10:51:46;;;;;;;2.88;1.30;;;;;;;;;;5114397;28;20600;-62
2021/10/12 11:11:32;;;;;;;2.50;1.38;;;;;;;;;;5121035;28;20111;-62
2021/10/12 11:17:33;;;;;;;1.65;1.10;;;;;;;;;;5120983;28;20034;-62
2021/10/12 11:20:00;;;;;;;2.28;1.10;;;;;;;;;;5120311;28;20039;-62
2021/10/12 11:22:26;;;;;;;4.18;1.73;;;;;;;;;;5120079;28;20069;-62
2021/10/12 11:24:53;;;;;;;1.58;1.30;;;;;;;;;;5101745;28;20047;-62
2021/10/12 11:27:18;;;;;;;1.58;0.93;;;;;;;;;;5101767;28;20568;-63
2021/10/12 11:29:44;;;;;;;1.92;1.10;;;;;;;;;;5120025;28;20091;-63
2021/10/12 11:32:10;;;;;;;2.13;0.93;;;;;;;;;;5119999;28;20027;-63
2021/10/12 11:34:36;;;;;;;1.67;1.13;;;;;;;;;;5119857;28;20096;-63
2021/10/12 11:37:08;;;;;;;1.10;1.00;;;;;;;;;;5119907;28;20024;-63
2021/10/12 11:39:36;;;;;;;2.40;1.27;;;;;;;;;;5119965;28;20031;-63
2021/10/12 11:42:04;;;;;;;2.42;1.17;;;;;;;;;;5120052;28;20115;-63
2021/10/12 11:44:30;;;;;;;1.80;1.10;;;;;;;;;;5119995;28;20491;-62
2021/10/12 11:47:02;;;;;;;2.72;1.30;;;;;;;;;;5119915;28;20070;-63
2021/10/12 11:49:32;;;;;;;1.30;1.10;;;;;;;;;;5120022;28;20508;-63
2021/10/12 11:52:03;;;;;;;8.48;5.10;;;;;;;;;;5119675;28;20399;-63
2021/10/12 11:54:28;;;;;;;10.45;3.15;;;;;;;;;;5119782;28;20047;-63
2021/10/12 11:56:54;;;;;;;5.63;2.05;;;;;;;;;;5119725;28;20520;-63
2021/10/12 11:59:20;;;;;;;13.93;11.38;;;;;;;;;;5119888;28;20028;-63
2021/10/12 12:01:46;;;;;;;32.63;22.13;;;;;;;;;;5119760;28;20031;-63
2021/10/12 12:04:26;;;;;;;19.50;11.48;;;;;;;;;;5101428;28;20035;-63
2021/10/12 12:06:53;;;;;;;88.82;49.90;;;;;;;;;;5119684;28;20047;-63
2021/10/12 12:09:20;;;;;;;12.98;8.77;;;;;;;;;;5119799;28;20043;-63
2021/10/12 12:11:45;;;;;;;11.05;7.00;;;;;;;;;;5119724;28;20032;-63
2021/10/12 12:14:11;;;;;;;4.72;1.90;;;;;;;;;;5117348;28;20384;-63
2021/10/12 12:16:36;;;;;;;2.22;1.90;;;;;;;;;;5116433;28;20024;-63
2021/10/12 12:19:18;;;;;;;3.60;2.15;;;;;;;;;;5116322;28;20073;-63
2021/10/12 12:21:44;;;;;;;3.10;1.70;;;;;;;;;;5098278;28;20040;-63
2021/10/12 12:24:16;;;;;;;1.85;1.70;;;;;;;;;;5116310;28;20038;-63
2021/10/12 12:26:42;;;;;;;6.00;2.83;;;;;;;;;;5116300;28;20044;-62
2021/10/12 12:29:19;;;;;;;3.25;2.25;;;;;;;;;;5116315;28;20373;-63
2021/10/12 12:31:45;;;;;;;9.48;3.58;;;;;;;;;;5116229;28;20065;-63
2021/10/12 12:34:23;;;;;;;7.72;4.13;;;;;;;;;;5115930;28;20024;-63
2021/10/12 12:36:48;;;;;;;5.57;3.53;;;;;;;;;;5116091;28;20423;-63
2021/10/12 12:39:14;;;;;;;5.32;3.58;;;;;;;;;;5116078;28;20022;-62
2021/10/12 12:41:41;;;;;;;4.47;2.97;;;;;;;;;;5097844;28;20502;-63
2021/10/12 12:44:09;;;;;;;3.50;1.97;;;;;;;;;;5115965;28;20119;-62
2021/10/12 12:46:35;;;;;;;3.47;2.13;;;;;;;;;;5115396;28;20118;-63
2021/10/12 12:49:02;;;;;;;2.72;2.20;;;;;;;;;;5115995;28;20488;-63
2021/10/12 12:51:35;;;;;;;2.83;2.20;;;;;;;;;;5115832;28;20040;-63
2021/10/12 12:54:01;;;;;;;4.88;2.50;;;;;;;;;;5115606;28;20478;-62
2021/10/12 12:56:33;;;;;;;5.03;2.60;;;;;;;;;;5115720;28;20066;-63
2021/10/12 12:59:03;;;;;;;4.25;2.30;;;;;;;;;;5115733;28;20036;-63
2021/10/12 13:01:29;;;;;;;6.45;2.80;;;;;;;;;;5115790;28;20119;-63
2021/10/12 13:03:54;;;;;;;5.00;2.72;;;;;;;;;;5115547;28;20115;-63
2021/10/12 13:06:20;;;;;;;4.75;2.80;;;;;;;;;;5097073;28;20039;-63
2021/10/12 13:08:48;;;;;;;7.50;3.60;;;;;;;;;;5115341;28;20040;-63
2021/10/12 13:11:22;;;;;;;4.05;2.20;;;;;;;;;;5115249;28;20425;-63
2021/10/12 13:13:48;;;;;;;2.58;2.25;;;;;;;;;;5115249;28;20051;-63
2021/10/12 13:16:17;;;;;;;2.97;2.28;;;;;;;;;;5115335;28;20172;-63
2021/10/12 13:18:43;;;;;;;4.90;2.75;;;;;;;;;;5097510;28;20027;-63
2021/10/12 13:21:09;;;;;;;5.03;2.70;;;;;;;;;;5115116;28;20033;-63
2021/10/12 13:23:34;;;;;;;3.33;2.45;;;;;;;;;;5115130;28;20115;-63
2021/10/12 13:26:00;;;;;;;4.85;3.13;;;;;;;;;;5114393;28;20407;-63
2021/10/12 13:28:27;;;;;;;3.63;2.22;;;;;;;;;;5097280;28;20146;-63
2021/10/12 13:30:52;;;;;;;3.53;2.80;;;;;;;;;;5115536;28;20483;-62
2021/10/12 13:33:18;;;;;;;7.47;4.45;;;;;;;;;;5114912;28;20027;-62
2021/10/12 13:35:43;;;;;;;4.22;3.03;;;;;;;;;;5114850;28;20111;-55
2021/10/12 13:38:11;;;;;;;4.25;2.33;;;;;;;;;;5115552;28;20039;-66
2021/10/12 13:40:37;;;;;;;6.63;3.03;;;;;;;;;;5115090;28;20016;-66
2021/10/12 13:43:03;;;;;;;6.03;3.30;;;;;;;;;;5096132;28;20441;-67
2021/10/12 13:45:29;;;;;;;3.55;2.80;;;;;;;;;;5114781;28;20040;-66
2021/10/12 13:47:57;;;;;;;6.15;3.13;;;;;;;;;;5114628;28;20398;-67
2021/10/12 13:50:24;;;;;;;5.13;3.10;;;;;;;;;;5114711;28;20030;-66
2021/10/12 13:52:49;;;;;;;6.35;3.33;;;;;;;;;;5114214;28;20035;-66
2021/10/12 13:55:18;;;;;;;4.78;3.28;;;;;;;;;;5114208;28;20035;-66
2021/10/12 13:57:43;;;;;;;5.32;3.25;;;;;;;;;;5114358;28;20028;-66
2021/10/12 14:00:09;;;;;;;5.70;3.15;;;;;;;;;;5114398;28;20535;-66
2021/10/12 14:02:39;;;;;;;4.43;2.70;;;;;;;;;;5114619;28;20040;-66
2021/10/12 14:05:05;;;;;;;4.43;2.72;;;;;;;;;;5114211;28;20028;-66
2021/10/12 14:07:31;;;;;;;4.93;2.90;;;;;;;;;;5113662;28;20066;-67
2021/10/12 14:09:56;;;;;;;6.80;3.15;;;;;;;;;;5114298;28;20048;-66
2021/10/12 14:12:22;;;;;;;7.85;4.18;;;;;;;;;;5114180;28;20510;-66
2021/10/12 14:14:47;;;;;;;7.35;4.25;;;;;;;;;;5114158;28;20054;-66
2021/10/12 14:17:13;;;;;;;3.70;2.78;;;;;;;;;;5114169;28;20035;-66
2021/10/12 14:19:39;;;;;;;3.03;2.33;;;;;;;;;;5113819;28;20039;-66
2021/10/12 14:22:05;;;;;;;4.80;3.15;;;;;;;;;;5113828;28;20043;-66
2021/10/12 14:24:31;;;;;;;2.92;2.70;;;;;;;;;;5113998;28;20115;-66
2021/10/12 14:27:00;;;;;;;5.50;3.30;;;;;;;;;;5114068;28;20195;-66
2021/10/12 14:29:26;;;;;;;7.82;4.40;;;;;;;;;;5113864;28;20028;-66
2021/10/12 14:31:51;;;;;;;5.07;3.60;;;;;;;;;;5113841;28;20403;-66
2021/10/12 14:34:16;;;;;;;4.03;2.97;;;;;;;;;;5113830;28;20035;-66
2021/10/12 14:36:43;;;;;;;8.88;4.18;;;;;;;;;;5112781;28;20446;-66
2021/10/12 14:39:09;;;;;;;5.97;3.40;;;;;;;;;;5113869;28;20086;-66
2021/10/12 14:41:34;;;;;;;5.40;3.15;;;;;;;;;;5113762;28;20040;-66
2021/10/12 14:44:00;;;;;;;3.92;2.63;;;;;;;;;;5113687;28;20031;-66
2021/10/12 14:46:25;;;;;;;3.30;2.60;;;;;;;;;;5113588;28;20043;-66
2021/10/12 14:48:51;;;;;;;3.90;2.80;;;;;;;;;;5113674;28;20028;-66
2021/10/12 14:51:17;;;;;;;4.28;3.13;;;;;;;;;;5113601;28;20039;-66
2021/10/12 14:53:43;;;;;;;4.38;3.10;;;;;;;;;;5113591;28;20030;-66
2021/10/12 14:56:09;;;;;;;5.13;2.95;;;;;;;;;;5113515;28;20040;-66
2021/10/12 14:58:34;;;;;;;5.20;3.13;;;;;;;;;;5113389;28;20046;-66
2021/10/12 15:01:00;;;;;;;6.00;3.55;;;;;;;;;;5113341;28;20032;-66
2021/10/12 15:03:26;;;;;;;9.68;5.68;;;;;;;;;;5095255;28;20016;-67
2021/10/12 15:05:52;;;;;;;6.22;4.07;;;;;;;;;;5078405;28;20479;-67
2021/10/12 15:08:19;;;;;;;7.05;3.00;;;;;;;;;;5113075;28;20073;-66
2021/10/12 15:10:44;;;;;;;5.32;3.30;;;;;;;;;;5113295;28;20122;-66
2021/10/12 15:13:10;;;;;;;8.55;5.80;;;;;;;;;;5113315;28;20109;-66
2021/10/12 15:15:36;;;;;;;9.23;5.10;;;;;;;;;;5113374;28;20093;-66
2021/10/12 15:18:02;;;;;;;3.97;3.05;;;;;;;;;;5113364;28;20473;-66
2021/10/12 15:20:28;;;;;;;5.22;3.13;;;;;;;;;;5113187;28;20032;-66
2021/10/12 15:22:53;;;;;;;3.15;2.72;;;;;;;;;;5113224;28;20383;-66
2021/10/12 15:25:19;;;;;;;4.90;3.28;;;;;;;;;;5113215;28;20061;-67
2021/10/12 15:27:48;;;;;;;5.22;3.28;;;;;;;;;;5113160;28;20027;-66
2021/10/12 15:30:15;;;;;;;6.32;3.83;;;;;;;;;;5095173;28;20043;-66
2021/10/12 15:32:43;;;;;;;10.68;5.50;;;;;;;;;;5113112;28;20055;-66
2021/10/12 15:35:08;;;;;;;9.10;5.85;;;;;;;;;;5094691;28;20044;-66
2021/10/12 15:37:35;;;;;;;10.27;6.40;;;;;;;;;;5113124;28;20030;-64
2021/10/12 15:40:00;;;;;;;11.35;6.95;;;;;;;;;;5113220;28;20380;-64
2021/10/12 15:42:26;;;;;;;10.00;6.93;;;;;;;;;;5113183;28;20088;-65
2021/10/12 15:44:52;;;;;;;10.32;6.03;;;;;;;;;;5113085;28;20066;-65
2021/10/12 15:47:19;;;;;;;12.48;7.10;;;;;;;;;;5113060;28;20024;-64
2021/10/12 15:49:45;;;;;;;11.20;6.20;;;;;;;;;;5116298;28;20039;-64
2021/10/12 15:52:13;;;;;;;8.32;6.43;;;;;;;;;;5116999;28;20039;-65
2021/10/12 15:54:41;;;;;;;11.77;7.38;;;;;;;;;;5116797;28;20590;-64
2021/10/12 15:57:06;;;;;;;12.93;7.45;;;;;;;;;;5116757;28;20510;-64
2021/10/12 15:59:32;;;;;;;12.25;7.63;;;;;;;;;;5116801;28;20040;-64
2021/10/12 16:01:57;;;;;;;13.57;8.45;;;;;;;;;;5116782;28;20027;-64
2021/10/12 16:04:23;;;;;;;22.40;12.18;;;;;;;;;;5116735;28;20039;-64
2021/10/12 16:06:48;;;;;;;32.55;17.13;;;;;;;;;;5116146;28;20035;-62
2021/10/12 16:09:15;;;;;;;38.88;20.40;;;;;;;;;;5116724;28;20396;-63
2021/10/12 16:11:45;;;;;;;53.05;27.55;;;;;;;;;;5116475;28;20038;-67
2021/10/12 16:14:17;;;;;;;63.33;33.15;;;;;;;;;;5116506;28;20487;-66
2021/10/12 16:21:52;;;;;;;50.83;27.65;;;;;;;;;;5116209;28;20464;-63
2021/10/12 16:24:18;;;;;;;29.20;17.50;;;;;;;;;;5116336;28;20063;-63
2021/10/12 16:26:45;;;;;;;17.35;10.43;;;;;;;;;;5115939;28;20395;-56
2021/10/12 16:29:14;;;;;;;21.73;11.57;;;;;;;;;;5116191;28;20048;-63
2021/10/12 16:31:43;;;;;;;25.58;14.13;;;;;;;;;;5116251;28;20040;-63
2021/10/12 16:34:16;;;;;;;43.95;24.17;;;;;;;;;;5116067;28;20562;-63
2021/10/12 16:36:54;;;;;;;31.52;17.67;;;;;;;;;;5116217;28;20036;-62
2021/10/12 16:39:20;;;;;;;17.95;9.57;;;;;;;;;;5116115;28;20035;-62
2021/10/12 16:41:46;;;;;;;16.83;8.57;;;;;;;;;;5115981;28;20364;-62
2021/10/12 16:44:12;;;;;;;18.85;9.43;;;;;;;;;;5116004;28;20050;-62
2021/10/12 16:46:45;;;;;;;16.13;8.05;;;;;;;;;;5115937;28;20436;-62
2021/10/12 16:49:11;;;;;;;12.23;6.95;;;;;;;;;;5116018;28;20545;-62
2021/10/12 16:51:37;;;;;;;10.98;6.18;;;;;;;;;;5115736;28;20028;-62
2021/10/12 16:54:03;;;;;;;10.98;5.93;;;;;;;;;;5115590;28;20035;-63
2021/10/12 16:56:28;;;;;;;9.27;5.63;;;;;;;;;;5115758;28;20023;-63
2021/10/12 16:59:16;;;;;;;17.75;9.20;;;;;;;;;;5115719;28;20077;-62
2021/10/12 17:01:56;;;;;;;19.23;9.07;;;;;;;;;;5114920;28;20040;-63
2021/10/12 17:04:22;;;;;;;19.40;7.38;;;;;;;;;;5115673;28;20040;-63
2021/10/12 17:06:48;;;;;;;13.02;6.55;;;;;;;;;;5115278;28;20035;-63
2021/10/12 17:09:15;;;;;;;11.35;7.00;;;;;;;;;;5115438;28;20043;-63
2021/10/12 17:11:41;;;;;;;44.97;19.13;;;;;;;;;;5115440;28;20066;-63
2021/10/12 17:14:07;;;;;;;37.33;15.57;;;;;;;;;;5096901;28;20410;-63
2021/10/12 17:16:33;;;;;;;26.60;12.45;;;;;;;;;;5115371;28;20463;-63
2021/10/12 17:18:59;;;;;;;16.33;8.38;;;;;;;;;;5115153;28;20080;-63
2021/10/12 17:21:25;;;;;;;7.70;5.28;;;;;;;;;;5097074;28;20088;-63
2021/10/12 17:23:51;;;;;;;11.23;7.72;;;;;;;;;;5115069;28;20036;-63
2021/10/12 17:26:17;;;;;;;17.30;9.68;;;;;;;;;;5115066;28;20437;-63
2021/10/12 17:28:43;;;;;;;14.45;8.40;;;;;;;;;;5114993;28;20036;-63
2021/10/12 17:31:09;;;;;;;14.18;8.07;;;;;;;;;;5115084;28;20509;-63
2021/10/12 17:33:34;;;;;;;15.18;8.48;;;;;;;;;;5115005;28;20070;-63
2021/10/12 17:35:59;;;;;;;13.35;8.45;;;;;;;;;;5096430;28;20383;-63
2021/10/12 17:38:25;;;;;;;11.65;7.07;;;;;;;;;;5114848;28;20032;-63
2021/10/12 17:40:51;;;;;;;17.90;9.98;;;;;;;;;;5114856;28;20023;-63
2021/10/12 17:43:20;;;;;;;136.30;60.67;;;;;;;;;;5114921;28;20036;-63
2021/10/12 17:45:46;;;;;;;109.32;52.95;;;;;;;;;;5114643;28;20027;-63
2021/10/12 17:48:12;;;;;;;53.40;23.65;;;;;;;;;;5114583;28;20066;-63
2021/10/12 17:50:44;;;;;;;32.60;12.68;;;;;;;;;;5114536;28;20063;-63
2021/10/12 17:53:13;;;;;;;17.08;7.40;;;;;;;;;;5114576;28;20063;-63
2021/10/12 17:55:39;;;;;;;11.55;5.78;;;;;;;;;;5114476;28;20372;-63
2021/10/12 17:58:06;;;;;;;10.93;5.25;;;;;;;;;;5114502;28;20035;-63
2021/10/12 18:00:32;;;;;;;7.97;5.13;;;;;;;;;;5114440;28;20053;-63
2021/10/12 18:02:57;;;;;;;6.07;4.05;;;;;;;;;;5114441;28;20122;-63
2021/10/12 18:05:28;;;;;;;7.25;5.18;;;;;;;;;;5114247;28;20073;-63
2021/10/12 18:07:54;;;;;;;6.43;4.60;;;;;;;;;;5095499;28;20105;-63
2021/10/12 18:10:19;;;;;;;5.80;4.47;;;;;;;;;;5114333;28;20490;-63
2021/10/12 18:12:45;;;;;;;5.63;4.35;;;;;;;;;;5114212;28;20051;-63
2021/10/12 18:15:10;;;;;;;6.53;4.40;;;;;;;;;;5114172;28;20042;-63
2021/10/12 18:17:36;;;;;;;5.43;4.00;;;;;;;;;;5113964;28;20032;-63
2021/10/12 18:20:02;;;;;;;7.13;4.55;;;;;;;;;;5114125;28;20106;-63
2021/10/12 18:22:28;;;;;;;5.20;3.92;;;;;;;;;;5114100;28;20433;-63
2021/10/12 18:24:54;;;;;;;8.43;4.72;;;;;;;;;;5114006;28;20536;-62
2021/10/12 18:27:20;;;;;;;6.53;4.47;;;;;;;;;;5114012;28;20046;-63
2021/10/12 18:29:45;;;;;;;7.78;4.53;;;;;;;;;;5113991;28;20035;-62
2021/10/12 18:32:11;;;;;;;5.78;4.20;;;;;;;;;;5114078;28;20557;-62
2021/10/12 18:34:36;;;;;;;5.97;4.20;;;;;;;;;;5113926;28;20023;-62
2021/10/12 18:37:02;;;;;;;5.03;4.05;;;;;;;;;;5113840;28;20486;-62
2021/10/12 18:39:28;;;;;;;5.25;4.10;;;;;;;;;;5113821;28;20042;-62
2021/10/12 18:41:54;;;;;;;11.73;6.57;;;;;;;;;;5113712;28;20063;-62
2021/10/12 18:44:19;;;;;;;8.30;5.30;;;;;;;;;;5113784;28;20088;-62
2021/10/12 18:46:45;;;;;;;6.78;4.30;;;;;;;;;;5113786;28;20434;-62
2021/10/12 18:49:11;;;;;;;19.73;11.30;;;;;;;;;;5113644;28;20031;-62
2021/10/12 18:51:37;;;;;;;12.10;7.13;;;;;;;;;;5113633;28;20495;-62